Time;durP1;ratioP1;P1;durP2;ratioP2;P2;SDS_P1;SDS_P2;PMS_P1;PMS_P2;Temp;Humidity;BMP_temperature;BMP_pressure;BME280_temperature;BME280_humidity;BME280_pressure;Samples;Min_cycle;Max_cycle;Signal;HPM_P1;HPM_P2
2023/01/02 00:00:20;;;;;;;1.05;0.60;;;11.30;99.90;;;;;;4860722;29;20042;-77
2023/01/02 00:02:46;;;;;;;2.90;1.02;;;11.40;99.90;;;;;;4859096;29;20069;-77
2023/01/02 00:05:11;;;;;;;1.80;0.95;;;11.30;99.90;;;;;;4844481;29;20052;-76
2023/01/02 00:07:37;;;;;;;2.03;1.23;;;11.30;99.90;;;;;;4843536;29;20049;-76
2023/01/02 00:10:04;;;;;;;1.70;1.20;;;11.30;99.90;;;;;;4860134;29;20100;-77
2023/01/02 00:12:29;;;;;;;1.73;0.90;;;11.50;99.90;;;;;;4859832;29;20356;-77
2023/01/02 00:14:55;;;;;;;1.20;0.80;;;11.50;99.90;;;;;;4860219;29;20057;-77
2023/01/02 00:17:21;;;;;;;1.40;0.90;;;11.50;99.90;;;;;;4860364;29;20073;-77
2023/01/02 00:19:46;;;;;;;1.92;1.10;;;11.40;99.90;;;;;;4860662;29;20558;-77
2023/01/02 00:22:12;;;;;;;1.92;1.42;;;11.60;99.90;;;;;;4844772;29;20568;-70
2023/01/02 00:24:38;;;;;;;2.22;1.50;;;11.60;99.90;;;;;;4843482;29;20054;-71
2023/01/02 00:27:04;;;;;;;1.90;1.33;;;11.60;99.90;;;;;;4840144;29;20729;-72
2023/01/02 00:29:29;;;;;;;2.22;1.60;;;11.70;99.90;;;;;;4841310;29;20132;-77
2023/01/02 00:31:55;;;;;;;2.63;1.85;;;11.70;99.90;;;;;;4858982;29;20045;-78
2023/01/02 00:34:21;;;;;;;2.72;1.85;;;11.70;99.90;;;;;;4859193;29;20081;-78
2023/01/02 00:36:46;;;;;;;2.22;1.70;;;11.70;99.90;;;;;;4859604;29;20057;-78
2023/01/02 00:39:12;;;;;;;4.25;2.10;;;11.90;99.90;;;;;;4844118;29;20189;-78
2023/01/02 00:41:38;;;;;;;2.78;1.95;;;11.90;99.90;;;;;;4843805;29;20064;-78
2023/01/02 00:44:03;;;;;;;3.08;1.73;;;11.90;99.90;;;;;;4859329;29;20055;-77
2023/01/02 00:46:32;;;;;;;2.08;1.80;;;12.00;99.90;;;;;;4844208;29;20046;-77
2023/01/02 00:48:58;;;;;;;2.83;1.55;;;12.10;99.90;;;;;;4859079;29;20070;-77
2023/01/02 00:51:24;;;;;;;2.22;2.00;;;12.10;99.90;;;;;;4843955;29;20057;-77
2023/01/02 00:53:49;;;;;;;2.35;1.90;;;12.30;99.90;;;;;;4843361;29;20061;-77
2023/01/02 00:56:15;;;;;;;3.28;2.25;;;12.30;99.90;;;;;;4843934;29;20082;-78
2023/01/02 00:58:41;;;;;;;2.95;2.05;;;12.40;99.90;;;;;;4857975;29;20041;-78
2023/01/02 01:01:06;;;;;;;3.05;1.95;;;12.30;99.90;;;;;;4854751;29;20434;-78
2023/01/02 01:03:32;;;;;;;2.78;1.70;;;12.40;99.90;;;;;;4858210;29;20045;-78
2023/01/02 01:05:58;;;;;;;2.38;1.88;;;12.40;99.90;;;;;;4858645;29;20098;-77
2023/01/02 01:08:24;;;;;;;2.35;1.83;;;12.50;99.90;;;;;;4856107;29;20494;-77
2023/01/02 01:10:50;;;;;;;1.85;1.52;;;12.60;99.90;;;;;;4842194;29;20048;-77
2023/01/02 01:13:16;;;;;;;2.47;1.90;;;12.50;99.90;;;;;;4857567;29;20081;-78
2023/01/02 01:15:42;;;;;;;2.20;1.60;;;12.50;99.90;;;;;;4839100;29;20124;-78
2023/01/02 01:18:07;;;;;;;3.22;1.90;;;12.70;99.90;;;;;;4858386;29;20091;-78
2023/01/02 01:20:37;;;;;;;4.15;2.03;;;12.70;99.90;;;;;;4858096;29;20125;-77
2023/01/02 01:23:03;;;;;;;2.63;2.33;;;12.90;99.90;;;;;;4857337;29;20124;-77
2023/01/02 01:25:28;;;;;;;3.25;2.15;;;13.00;99.90;;;;;;4858136;29;20129;-78
2023/01/02 01:27:54;;;;;;;2.22;1.98;;;12.80;99.90;;;;;;4842605;29;20081;-77
2023/01/02 01:30:20;;;;;;;2.22;1.83;;;12.90;99.90;;;;;;4858252;29;20042;-78
2023/01/02 01:32:45;;;;;;;2.92;2.00;;;12.90;99.90;;;;;;4842744;29;20113;-77
2023/01/02 01:35:11;;;;;;;2.47;1.80;;;12.90;99.90;;;;;;4857927;29;20061;-77
2023/01/02 01:37:38;;;;;;;1.88;1.48;;;13.00;99.90;;;;;;4857833;29;20144;-77
2023/01/02 01:40:05;;;;;;;1.73;1.52;;;13.00;99.90;;;;;;4858219;29;20081;-79
2023/01/02 01:42:34;;;;;;;2.33;1.90;;;13.00;99.90;;;;;;4839884;29;20046;-77
2023/01/02 01:45:00;;;;;;;1.85;1.50;;;13.20;99.90;;;;;;4842245;29;20060;-77
2023/01/02 01:48:02;;;;;;;2.00;1.70;;;13.10;99.90;;;;;;4843087;29;20053;-77
2023/01/02 01:50:34;;;;;;;3.30;2.58;;;13.30;99.90;;;;;;4823771;29;20073;-77
2023/01/02 01:53:17;;;;;;;4.25;2.50;;;13.40;99.90;;;;;;4851884;29;20057;-77
2023/01/02 01:55:51;;;;;;;4.22;2.67;;;13.30;99.90;;;;;;4842521;29;20585;-76
2023/01/02 01:58:21;;;;;;;3.63;2.80;;;13.40;99.90;;;;;;4857752;29;20485;-78
2023/01/02 02:00:48;;;;;;;2.88;2.05;;;13.30;99.90;;;;;;4856938;29;20616;-78
2023/01/02 02:03:15;;;;;;;;;;;13.50;99.90;;;;;;4855711;29;20098;-78
2023/01/02 02:05:42;;;;;;;4.47;2.50;;;13.50;99.90;;;;;;4833958;29;19976;-77
2023/01/02 02:08:37;;;;;;;4.63;2.63;;;13.40;99.90;;;;;;4839656;29;20521;-77
2023/01/02 02:11:03;;;;;;;4.28;3.13;;;13.60;99.90;;;;;;4843931;29;20061;-77
2023/01/02 02:13:32;;;;;;;3.97;3.10;;;13.70;99.90;;;;;;4842216;29;20363;-77
2023/01/02 02:16:16;;;;;;;6.15;3.03;;;13.40;99.90;;;;;;4856172;29;20124;-76
2023/01/02 02:18:42;;;;;;;7.07;3.35;;;13.60;99.90;;;;;;4856504;29;20106;-78
2023/01/02 02:21:46;;;;;;;4.60;3.33;;;13.80;99.90;;;;;;4853388;29;20053;-78
2023/01/02 02:24:48;;;;;;;3.83;3.20;;;13.80;99.90;;;;;;4853252;29;20106;-78
2023/01/02 02:27:32;;;;;;;3.70;3.13;;;13.70;99.90;;;;;;4842407;29;20045;-77
2023/01/02 02:30:12;;;;;;;4.50;3.53;;;13.90;99.90;;;;;;4838886;29;20058;-79
2023/01/02 02:32:55;;;;;;;4.57;3.30;;;13.70;99.90;;;;;;4858366;29;20041;-77
2023/01/02 02:35:47;;;;;;;5.22;3.80;;;13.80;99.90;;;;;;4863017;29;20053;-77
2023/01/02 02:38:36;;;;;;;4.35;3.60;;;13.90;99.90;;;;;;4873692;29;20064;-78
2023/01/02 02:41:32;;;;;;;3.80;3.20;;;13.80;99.90;;;;;;4843768;29;20129;-76
2023/01/02 02:43:58;;;;;;;3.55;2.95;;;13.90;99.90;;;;;;4859257;29;20046;-78
2023/01/02 02:47:01;;;;;;;5.88;3.67;;;14.20;99.90;;;;;;4860560;29;20048;-77
2023/01/02 02:49:54;;;;;;;3.85;3.30;;;14.10;99.90;;;;;;4859417;29;20405;-77
2023/01/02 02:53:00;;;;;;;6.15;4.00;;;14.30;99.90;;;;;;4859105;29;20049;-77
2023/01/02 02:55:34;;;;;;;5.10;3.78;;;14.10;99.90;;;;;;4805194;29;20057;-77
2023/01/02 02:58:00;;;;;;;5.43;3.42;;;14.10;99.90;;;;;;4855633;29;20049;-76
2023/01/02 03:00:26;;;;;;;5.95;4.32;;;14.30;99.90;;;;;;4845610;29;20049;-77
2023/01/02 03:02:52;;;;;;;5.88;4.05;;;14.20;99.90;;;;;;4859889;29;20049;-78
2023/01/02 03:05:42;;;;;;;4.57;3.53;;;14.10;99.90;;;;;;4843902;29;20049;-78
2023/01/02 03:08:21;;;;;;;5.28;4.07;;;14.20;99.90;;;;;;4859002;29;20117;-77
2023/01/02 03:10:59;;;;;;;4.32;3.33;;;14.50;99.90;;;;;;4858471;29;20530;-77
2023/01/02 03:13:33;;;;;;;5.40;4.35;;;14.20;99.90;;;;;;4859247;29;20049;-77
2023/01/02 03:16:20;;;;;;;6.22;3.75;;;14.50;99.90;;;;;;4840783;29;20048;-78
2023/01/02 03:18:58;;;;;;;5.38;3.60;;;14.30;99.90;;;;;;4858764;29;20428;-77
2023/01/02 03:21:53;;;;;;;5.07;4.20;;;14.60;99.90;;;;;;4842761;29;20413;-77
2023/01/02 03:24:24;;;;;;;4.97;4.13;;;14.70;99.90;;;;;;4824749;29;20076;-78
2023/01/02 03:26:56;;;;;;;4.72;3.88;;;14.40;99.90;;;;;;4830087;29;20037;-77
2023/01/02 03:29:38;;;;;;;4.63;3.70;;;14.40;99.90;;;;;;4859280;29;20080;-77
2023/01/02 03:32:12;;;;;;;5.82;4.32;;;14.70;99.90;;;;;;4857869;29;20079;-77
2023/01/02 03:34:40;;;;;;;5.57;4.20;;;14.50;99.90;;;;;;4859778;29;20101;-78
2023/01/02 03:37:13;;;;;;;6.45;4.55;;;14.40;99.90;;;;;;4844747;29;20100;-77
2023/01/02 03:39:47;;;;;;;5.78;4.60;;;14.50;99.90;;;;;;4858710;29;20053;-77
2023/01/02 03:42:24;;;;;;;8.82;5.40;;;14.80;99.90;;;;;;4858103;29;20049;-77
2023/01/02 03:45:03;;;;;;;7.20;5.00;;;14.80;99.90;;;;;;4858884;29;20056;-77
2023/01/02 03:47:50;;;;;;;8.20;5.10;;;14.80;99.90;;;;;;4859572;29;20049;-77
2023/01/02 03:50:26;;;;;;;;;;;14.90;99.90;;;;;;4847259;29;20053;-77
2023/01/02 03:52:52;;;;;;;7.43;5.65;;;14.70;99.90;;;;;;4858964;29;20396;-77
2023/01/02 03:55:22;;;;;;;13.20;6.32;;;14.90;99.90;;;;;;4840977;29;20072;-77
2023/01/02 03:57:50;;;;;;;8.80;6.53;;;14.90;99.90;;;;;;4853345;29;20053;-77
2023/01/02 04:00:18;;;;;;;8.80;5.75;;;14.80;99.90;;;;;;4858610;29;20081;-77
2023/01/02 04:02:48;;;;;;;9.32;5.70;;;14.90;99.90;;;;;;4859013;29;20144;-77
2023/01/02 04:05:39;;;;;;;8.23;5.30;;;14.90;99.90;;;;;;4860439;29;20158;-77
2023/01/02 04:08:07;;;;;;;10.30;5.78;;;14.70;99.90;;;;;;4859477;29;20077;-77
2023/01/02 04:10:36;;;;;;;8.25;6.20;;;14.70;99.90;;;;;;4854076;29;20045;-77
2023/01/02 04:13:15;;;;;;;10.77;7.30;;;14.90;99.90;;;;;;4841390;29;20049;-77
2023/01/02 04:15:43;;;;;;;11.07;6.60;;;14.70;99.90;;;;;;4857926;29;20390;-77
2023/01/02 04:18:14;;;;;;;11.60;7.03;;;14.70;99.90;;;;;;4858087;29;20045;-77
2023/01/02 04:20:46;;;;;;;10.45;6.35;;;15.00;99.90;;;;;;4858652;29;20200;-77
2023/01/02 04:23:26;;;;;;;8.55;6.45;;;15.00;99.90;;;;;;4859165;29;20050;-77
2023/01/02 04:26:18;;;;;;;8.27;5.95;;;14.80;99.90;;;;;;4858131;29;20083;-76
2023/01/02 04:28:44;;;;;;;7.43;5.60;;;14.80;99.90;;;;;;4854723;29;20126;-77
2023/01/02 04:31:20;;;;;;;8.60;5.28;;;14.70;99.90;;;;;;4814068;29;20137;-77
2023/01/02 04:34:10;;;;;;;10.23;5.97;;;15.00;99.90;;;;;;4857756;29;20071;-77
2023/01/02 04:36:40;;;;;;;8.07;5.80;;;14.80;99.90;;;;;;4856898;29;20488;-78
2023/01/02 04:39:06;;;;;;;10.82;6.20;;;14.90;99.90;;;;;;4857871;29;20084;-77
2023/01/02 04:41:33;;;;;;;9.80;5.90;;;14.80;99.90;;;;;;4859356;29;20231;-77
2023/01/02 04:43:59;;;;;;;6.95;5.45;;;14.80;99.90;;;;;;4833115;29;20041;-77
2023/01/02 04:46:26;;;;;;;7.55;6.22;;;14.70;99.90;;;;;;4857959;29;20394;-77
2023/01/02 04:48:53;;;;;;;10.27;6.80;;;14.80;99.90;;;;;;4857805;29;20121;-77
2023/01/02 04:51:22;;;;;;;7.90;6.18;;;15.00;99.90;;;;;;4842887;29;20045;-77
2023/01/02 04:53:50;;;;;;;8.27;5.35;;;14.80;99.90;;;;;;4843458;29;20514;-77
2023/01/02 04:56:17;;;;;;;5.57;4.75;;;14.90;99.90;;;;;;4842859;29;20095;-77
2023/01/02 04:58:44;;;;;;;6.43;5.38;;;14.80;99.90;;;;;;4858400;29;20053;-77
2023/01/02 05:01:12;;;;;;;7.03;5.00;;;14.70;99.90;;;;;;4855927;29;20057;-76
2023/01/02 05:03:42;;;;;;;9.40;5.00;;;15.00;99.90;;;;;;4841939;29;20045;-76
2023/01/02 05:06:11;;;;;;;8.52;5.47;;;15.00;99.90;;;;;;4857478;29;20052;-77
2023/01/02 05:08:37;;;;;;;10.05;5.18;;;15.00;99.90;;;;;;4842960;29;20080;-77
2023/01/02 05:11:13;;;;;;;6.05;4.35;;;14.80;99.90;;;;;;4857426;29;20077;-77
2023/01/02 05:13:39;;;;;;;;;;;15.10;99.90;;;;;;4856656;29;20049;-76
2023/01/02 05:16:06;;;;;;;5.32;4.03;;;15.10;99.90;;;;;;4856379;29;19920;-71
2023/01/02 05:18:31;;;;;;;;;;;15.10;99.90;;;;;;4842003;29;20052;-70
2023/01/02 05:21:06;;;;;;;7.40;4.13;;;15.10;99.90;;;;;;4841713;29;20275;-71
2023/01/02 05:23:49;;;;;;;4.88;3.75;;;15.10;99.90;;;;;;4857676;29;20486;-71
2023/01/02 05:26:16;;;;;;;5.38;3.75;;;15.10;99.90;;;;;;4841910;29;20136;-72
2023/01/02 05:28:42;;;;;;;4.00;3.20;;;14.90;99.90;;;;;;4856196;29;20037;-72
2023/01/02 05:31:09;;;;;;;4.43;3.55;;;14.90;99.90;;;;;;4856235;29;20056;-72
2023/01/02 05:33:34;;;;;;;3.70;3.20;;;15.20;99.90;;;;;;4843368;29;20064;-72
2023/01/02 05:36:02;;;;;;;3.97;3.13;;;14.80;99.90;;;;;;4857529;29;20053;-71
2023/01/02 05:38:30;;;;;;;3.97;2.92;;;14.80;99.90;;;;;;4856979;29;20115;-72
2023/01/02 05:41:03;;;;;;;4.10;2.85;;;14.90;99.90;;;;;;4840258;29;20056;-71
2023/01/02 05:43:31;;;;;;;3.22;2.47;;;15.10;99.90;;;;;;4848694;29;20041;-71
2023/01/02 05:45:57;;;;;;;2.22;2.00;;;15.20;99.90;;;;;;4855940;29;20048;-71
2023/01/02 05:48:23;;;;;;;3.67;2.63;;;14.90;99.90;;;;;;4858639;29;20049;-72
2023/01/02 05:50:48;;;;;;;3.10;2.40;;;15.10;99.90;;;;;;4833022;29;20042;-72
2023/01/02 05:53:15;;;;;;;2.85;2.55;;;14.80;99.90;;;;;;4848823;29;20057;-72
2023/01/02 05:55:41;;;;;;;2.78;2.55;;;15.10;99.90;;;;;;4851098;29;20167;-72
2023/01/02 05:58:06;;;;;;;2.88;2.60;;;14.90;99.90;;;;;;4838907;29;20132;-72
2023/01/02 06:00:32;;;;;;;2.95;2.55;;;15.20;99.90;;;;;;4853616;29;20077;-72
2023/01/02 06:02:58;;;;;;;2.53;2.33;;;15.20;99.90;;;;;;4851131;29;20049;-72
2023/01/02 06:05:23;;;;;;;2.42;2.22;;;15.20;99.90;;;;;;4842038;29;20482;-72
2023/01/02 06:07:49;;;;;;;2.35;2.15;;;14.90;99.90;;;;;;4856332;29;20104;-72
2023/01/02 06:10:15;;;;;;;3.78;2.50;;;14.90;99.90;;;;;;4837615;29;20049;-72
2023/01/02 06:12:40;;;;;;;4.35;2.97;;;15.30;99.90;;;;;;4853366;29;20125;-71
2023/01/02 06:15:06;;;;;;;3.28;2.70;;;15.30;99.90;;;;;;4859834;29;20550;-72
2023/01/02 06:17:32;;;;;;;3.45;2.42;;;15.00;99.90;;;;;;4837059;29;20047;-71
2023/01/02 06:19:58;;;;;;;2.42;2.00;;;15.10;99.90;;;;;;4842354;29;20045;-71
2023/01/02 06:22:24;;;;;;;2.42;2.10;;;15.30;99.90;;;;;;4855686;29;20597;-72
2023/01/02 06:24:49;;;;;;;2.42;2.22;;;15.30;99.90;;;;;;4857146;29;20049;-71
2023/01/02 06:27:15;;;;;;;2.70;2.10;;;15.30;99.90;;;;;;4837043;29;20457;-71
2023/01/02 06:29:41;;;;;;;2.78;2.20;;;15.00;99.90;;;;;;4858434;29;20051;-71
2023/01/02 06:32:06;;;;;;;2.35;2.10;;;15.30;99.90;;;;;;4858781;29;20356;-72
2023/01/02 06:34:32;;;;;;;2.45;2.20;;;14.90;99.90;;;;;;4855700;29;20081;-71
2023/01/02 06:36:58;;;;;;;2.55;1.90;;;15.50;99.90;;;;;;4814296;29;20074;-70
2023/01/02 06:39:23;;;;;;;2.50;2.30;;;15.00;99.90;;;;;;4860174;29;20109;-70
2023/01/02 06:41:51;;;;;;;2.30;2.10;;;15.30;99.90;;;;;;4855537;29;20053;-70
2023/01/02 06:44:16;;;;;;;2.20;2.00;;;15.10;99.90;;;;;;4857034;29;20367;-70
2023/01/02 06:46:42;;;;;;;2.67;1.77;;;15.50;99.90;;;;;;4855703;29;20044;-71
2023/01/02 06:49:08;;;;;;;2.05;1.85;;;15.00;99.90;;;;;;4858872;29;20041;-76
2023/01/02 06:51:36;;;;;;;2.15;1.95;;;15.10;99.90;;;;;;4840410;29;22146;-77
2023/01/02 06:54:02;;;;;;;2.40;2.15;;;15.20;99.90;;;;;;4857431;29;20065;-76
2023/01/02 06:56:28;;;;;;;3.17;2.45;;;14.90;99.90;;;;;;4840356;29;20094;-77
2023/01/02 06:58:54;;;;;;;3.55;2.80;;;15.10;99.90;;;;;;4851682;29;20136;-77
2023/01/02 07:01:22;;;;;;;4.32;3.35;;;15.40;99.90;;;;;;4826010;29;20534;-78
2023/01/02 07:03:48;;;;;;;5.70;3.85;;;15.00;99.90;;;;;;4843915;29;20052;-78
2023/01/02 07:06:17;;;;;;;4.50;3.72;;;14.80;99.90;;;;;;4845470;29;20037;-78
2023/01/02 07:08:43;;;;;;;4.40;4.00;;;15.00;99.90;;;;;;4860801;29;20053;-78
2023/01/02 07:11:14;;;;;;;5.10;4.10;;;14.90;99.90;;;;;;4860908;29;20056;-78
2023/01/02 07:13:41;;;;;;;4.60;3.50;;;14.50;99.90;;;;;;4860616;29;20562;-77
2023/01/02 07:16:10;;;;;;;4.88;3.97;;;13.80;99.90;;;;;;4860326;29;20056;-78
2023/01/02 07:18:36;;;;;;;4.95;3.67;;;13.70;99.90;;;;;;4860226;29;20059;-78
2023/01/02 07:21:03;;;;;;;4.38;3.28;;;13.30;99.90;;;;;;4860598;29;20037;-78
2023/01/02 07:23:28;;;;;;;3.65;3.00;;;13.20;99.90;;;;;;4861379;29;20757;-78
2023/01/02 07:25:57;;;;;;;3.67;2.20;;;13.50;99.90;;;;;;4859429;29;20585;-78
2023/01/02 07:28:23;;;;;;;1.98;0.90;;;13.30;99.90;;;;;;4860288;29;20046;-78
2023/01/02 07:30:49;;;;;;;;;;;13.10;99.90;;;;;;4861125;29;20037;-77
2023/01/02 07:33:15;;;;;;;1.73;0.82;;;12.50;99.90;;;;;;4860282;29;20349;-71
2023/01/02 07:35:41;;;;;;;;;;;12.70;99.90;;;;;;4860751;29;20481;-71
2023/01/02 07:38:06;;;;;;;2.63;0.90;;;12.40;99.90;;;;;;4860151;29;19924;-71
2023/01/02 07:40:32;;;;;;;2.42;0.80;;;12.40;99.90;;;;;;4860379;29;20053;-71
2023/01/02 07:42:58;;;;;;;1.00;0.70;;;12.20;99.90;;;;;;4860486;29;20105;-71
2023/01/02 07:45:24;;;;;;;1.73;0.60;;;12.20;99.90;;;;;;4844886;29;20088;-72
2023/01/02 07:47:49;;;;;;;0.85;0.38;;;12.00;99.90;;;;;;4860143;29;20048;-71
2023/01/02 07:50:15;;;;;;;0.63;0.47;;;12.10;99.90;;;;;;4860594;29;20042;-78
2023/01/02 07:52:42;;;;;;;1.58;0.80;;;12.30;99.90;;;;;;4845165;29;20144;-78
2023/01/02 07:55:11;;;;;;;1.08;0.60;;;12.00;99.90;;;;;;4859036;29;20132;-78
2023/01/02 07:57:37;;;;;;;3.10;0.80;;;12.00;99.90;;;;;;4855352;29;20108;-78
2023/01/02 08:00:04;;;;;;;0.95;0.40;;;11.90;99.90;;;;;;4859868;29;20049;-78
2023/01/02 08:02:29;;;;;;;1.88;0.60;;;12.20;99.90;;;;;;4858756;29;20052;-78
2023/01/02 08:04:55;;;;;;;2.22;0.70;;;12.20;99.90;;;;;;4858807;29;20041;-77
2023/01/02 08:07:22;;;;;;;1.30;0.52;;;11.80;99.90;;;;;;4843430;29;20502;-78
2023/01/02 08:09:48;;;;;;;1.10;0.82;;;12.10;99.90;;;;;;4856262;29;20841;-78
2023/01/02 08:12:14;;;;;;;3.30;0.95;;;11.80;99.90;;;;;;4859384;29;20045;-77
2023/01/02 08:14:40;;;;;;;1.88;0.85;;;12.00;99.90;;;;;;4857976;29;20096;-78
2023/01/02 08:17:05;;;;;;;1.42;1.10;;;11.80;99.90;;;;;;4859671;29;20038;-78
2023/01/02 08:19:31;;;;;;;1.55;0.65;;;11.80;99.90;;;;;;4843361;29;20038;-78
2023/01/02 08:21:57;;;;;;;2.25;0.73;;;12.20;99.90;;;;;;4843971;29;20045;-78
2023/01/02 08:24:22;;;;;;;2.85;0.77;;;11.90;99.90;;;;;;4856732;29;20220;-77
2023/01/02 08:26:48;;;;;;;3.60;0.82;;;11.80;99.90;;;;;;4855717;29;20050;-77
2023/01/02 08:29:14;;;;;;;2.60;0.75;;;12.00;99.90;;;;;;4861574;29;20045;-76
2023/01/02 08:31:39;;;;;;;2.50;0.93;;;12.20;99.90;;;;;;4855345;29;20046;-77
2023/01/02 08:34:05;;;;;;;1.65;0.80;;;12.10;99.90;;;;;;4841660;29;20128;-71
2023/01/02 08:36:31;;;;;;;3.53;1.00;;;12.10;99.90;;;;;;4856043;29;20051;-71
2023/01/02 08:38:56;;;;;;;2.75;0.98;;;11.80;99.90;;;;;;4844316;29;20052;-71
2023/01/02 08:41:49;;;;;;;3.83;1.00;;;11.70;99.90;;;;;;4853454;29;20053;-76
2023/01/02 08:44:15;;;;;;;3.28;1.33;;;12.00;99.90;;;;;;4837068;29;20537;-77
2023/01/02 08:46:40;;;;;;;2.10;0.85;;;11.80;99.90;;;;;;4833817;29;20053;-76
2023/01/02 08:49:06;;;;;;;3.28;1.05;;;11.90;99.90;;;;;;4852690;29;20474;-70
2023/01/02 08:51:32;;;;;;;3.22;1.08;;;12.20;99.90;;;;;;4839613;29;20053;-72
2023/01/02 08:53:57;;;;;;;2.80;0.90;;;12.10;99.90;;;;;;4855436;29;20303;-72
2023/01/02 08:56:28;;;;;;;1.90;1.00;;;12.20;99.90;;;;;;4850054;29;20077;-72
2023/01/02 08:58:56;;;;;;;2.40;1.17;;;11.90;99.90;;;;;;4839597;29;20128;-71
2023/01/02 09:01:24;;;;;;;3.08;1.20;;;12.20;99.90;;;;;;4854781;29;20148;-71
2023/01/02 09:03:51;;;;;;;3.08;1.40;;;12.00;99.90;;;;;;4857404;29;20129;-71
2023/01/02 09:06:16;;;;;;;;;;;12.10;99.90;;;;;;4855367;29;20431;-71
2023/01/02 09:08:42;;;;;;;2.88;1.27;;;12.20;99.90;;;;;;4857667;29;19920;-71
2023/01/02 09:11:13;;;;;;;2.42;1.02;;;12.20;99.90;;;;;;4857055;29;20136;-78
2023/01/02 09:13:41;;;;;;;2.40;1.00;;;12.00;99.90;;;;;;4854490;29;20053;-78
2023/01/02 09:16:11;;;;;;;2.35;0.90;;;11.80;99.90;;;;;;4836330;29;20128;-77
2023/01/02 09:18:41;;;;;;;3.80;1.10;;;12.20;99.90;;;;;;4858422;29;20393;-78
2023/01/02 09:21:07;;;;;;;3.05;1.00;;;11.70;99.90;;;;;;4858411;29;20490;-77
2023/01/02 09:23:33;;;;;;;3.90;0.98;;;12.10;99.90;;;;;;4859542;29;20124;-78
2023/01/02 09:26:03;;;;;;;2.88;1.20;;;11.80;99.90;;;;;;4858196;29;20186;-78
2023/01/02 09:28:32;;;;;;;2.10;0.98;;;11.80;99.90;;;;;;4850873;29;20052;-77
2023/01/02 09:30:58;;;;;;;2.17;1.17;;;12.20;99.90;;;;;;4855081;29;20049;-77
2023/01/02 09:33:24;;;;;;;2.55;1.10;;;11.80;99.90;;;;;;4855429;29;20117;-78
2023/01/02 09:35:49;;;;;;;2.25;1.00;;;12.20;99.90;;;;;;4855418;29;20045;-77
2023/01/02 09:38:15;;;;;;;2.92;1.58;;;12.10;99.90;;;;;;4858900;29;20045;-78
2023/01/02 09:40:50;;;;;;;3.35;1.80;;;12.10;99.90;;;;;;4857928;29;20053;-71
2023/01/02 09:43:21;;;;;;;2.10;1.50;;;12.20;99.90;;;;;;4856954;29;20090;-70
2023/01/02 09:45:48;;;;;;;2.33;1.13;;;11.80;99.90;;;;;;4856828;29;20319;-70
2023/01/02 09:48:19;;;;;;;2.80;1.65;;;12.00;99.90;;;;;;4856725;29;20061;-75
2023/01/02 09:50:47;;;;;;;2.88;1.55;;;12.20;99.90;;;;;;4857133;29;20702;-70
2023/01/02 09:53:14;;;;;;;3.15;1.80;;;12.10;99.90;;;;;;4856995;29;20397;-70
2023/01/02 09:56:14;;;;;;;3.20;1.70;;;12.20;99.90;;;;;;4857023;29;20064;-70
2023/01/02 09:58:50;;;;;;;2.42;1.60;;;12.20;99.90;;;;;;4855600;29;20110;-77
2023/01/02 10:01:44;;;;;;;4.18;1.73;;;12.20;99.90;;;;;;4852331;29;20076;-78
2023/01/02 10:04:46;;;;;;;3.30;1.85;;;11.90;99.90;;;;;;4837040;29;20042;-71
2023/01/02 10:07:21;;;;;;;3.65;1.75;;;12.20;99.90;;;;;;4844480;29;20049;-71
2023/01/02 10:10:22;;;;;;;3.97;1.70;;;12.20;99.90;;;;;;4853892;29;20053;-71
2023/01/02 10:13:16;;;;;;;2.50;1.83;;;12.10;99.90;;;;;;4774028;29;20062;-70
2023/01/02 10:15:46;;;;;;;3.30;1.60;;;12.20;99.90;;;;;;4846485;29;20063;-77
2023/01/02 10:18:42;;;;;;;6.20;2.20;;;11.90;99.90;;;;;;4851651;29;20152;-77
2023/01/02 10:21:17;;;;;;;4.28;2.03;;;11.80;99.90;;;;;;4852850;29;20055;-77
2023/01/02 10:24:16;;;;;;;2.75;1.88;;;12.10;99.90;;;;;;4856545;29;20049;-77
2023/01/02 10:26:48;;;;;;;3.10;1.73;;;11.90;99.90;;;;;;4855171;29;20475;-77
2023/01/02 10:29:28;;;;;;;2.70;1.65;;;12.00;99.90;;;;;;4855663;29;20041;-77
2023/01/02 10:32:04;;;;;;;2.85;1.45;;;12.00;99.90;;;;;;4851749;29;20037;-71
2023/01/02 10:34:55;;;;;;;3.45;1.60;;;11.80;99.90;;;;;;4850352;29;20409;-71
2023/01/02 10:37:21;;;;;;;3.75;1.92;;;11.80;99.90;;;;;;4836270;29;20049;-71
2023/01/02 10:39:49;;;;;;;4.30;2.08;;;12.00;99.90;;;;;;4834849;29;20056;-71
2023/01/02 10:42:15;;;;;;;3.78;2.00;;;11.60;99.90;;;;;;4849640;29;20045;-70
2023/01/02 10:44:44;;;;;;;9.15;1.90;;;11.60;99.90;;;;;;4837037;29;20045;-70
2023/01/02 10:47:33;;;;;;;2.03;1.60;;;12.00;99.90;;;;;;4842583;29;20522;-70
2023/01/02 10:50:00;;;;;;;2.05;1.23;;;11.80;99.90;;;;;;4854790;29;20046;-70
2023/01/02 10:52:47;;;;;;;2.03;1.17;;;11.80;99.90;;;;;;4854287;29;20049;-71
2023/01/02 10:55:28;;;;;;;2.00;1.10;;;11.70;99.90;;;;;;4839963;29;20041;-70
2023/01/02 10:57:53;;;;;;;1.52;1.00;;;12.00;99.90;;;;;;4849544;29;20529;-77
2023/01/02 11:00:19;;;;;;;3.35;1.33;;;11.70;99.90;;;;;;4837061;29;20053;-71
2023/01/02 11:03:04;;;;;;;1.33;1.00;;;11.80;99.90;;;;;;4838208;29;20049;-77
2023/01/02 11:05:30;;;;;;;3.10;1.58;;;11.70;99.90;;;;;;4854130;29;20049;-77
2023/01/02 11:07:58;;;;;;;2.20;1.30;;;12.10;99.90;;;;;;4856639;29;20045;-77
2023/01/02 11:10:32;;;;;;;3.25;1.67;;;11.90;99.90;;;;;;4856397;29;20049;-77
2023/01/02 11:13:12;;;;;;;3.53;1.67;;;12.40;99.90;;;;;;4860086;29;20050;-76
2023/01/02 11:15:56;;;;;;;2.75;1.67;;;11.90;99.90;;;;;;4853027;29;20082;-76
2023/01/02 11:18:24;;;;;;;3.40;1.67;;;12.00;99.90;;;;;;4850038;29;20101;-70
2023/01/02 11:20:53;;;;;;;3.15;1.40;;;12.40;99.90;;;;;;4852396;29;20045;-70
2023/01/02 11:23:23;;;;;;;4.03;1.40;;;12.50;99.90;;;;;;4852769;29;20101;-70
2023/01/02 11:25:50;;;;;;;4.28;1.50;;;12.10;99.90;;;;;;4854655;29;20078;-70
2023/01/02 11:28:22;;;;;;;2.90;1.40;;;12.20;99.90;;;;;;4846970;29;20060;-71
2023/01/02 11:31:21;;;;;;;5.93;1.60;;;12.20;99.90;;;;;;4853624;29;20052;-71
2023/01/02 11:33:47;;;;;;;5.13;2.03;;;12.10;99.90;;;;;;4851264;29;20114;-71
2023/01/02 11:36:16;;;;;;;3.13;1.50;;;12.60;99.90;;;;;;4849992;29;20041;-71
2023/01/02 11:38:53;;;;;;;3.70;1.40;;;12.40;99.90;;;;;;4854296;29;20163;-71
2023/01/02 11:44:35;;;;;;;3.30;1.50;;;12.80;99.90;;;;;;4860525;29;20049;-72
2023/01/02 11:47:02;;;;;;;4.03;1.58;;;12.50;99.90;;;;;;4855314;29;20085;-72
2023/01/02 11:49:41;;;;;;;4.55;1.80;;;12.60;99.90;;;;;;4842856;29;20427;-71
2023/01/02 11:52:13;;;;;;;4.93;1.70;;;12.60;99.90;;;;;;4855331;29;20352;-71
2023/01/02 11:55:18;;;;;;;4.35;1.73;;;12.70;99.90;;;;;;4854555;29;20065;-70
2023/01/02 11:57:48;;;;;;;3.40;1.55;;;12.60;99.90;;;;;;4852344;29;20140;-71
2023/01/02 12:00:22;;;;;;;4.32;1.45;;;12.40;99.90;;;;;;4838303;29;20212;-71
2023/01/02 12:02:52;;;;;;;5.25;1.70;;;12.20;99.90;;;;;;4851677;29;20398;-78
2023/01/02 12:05:36;;;;;;;5.22;1.40;;;12.10;99.90;;;;;;4843522;29;20108;-77
2023/01/02 12:08:23;;;;;;;3.33;1.30;;;12.10;99.90;;;;;;4858005;29;20772;-77
2023/01/02 12:10:55;;;;;;;3.20;1.20;;;12.00;99.90;;;;;;4857702;29;20053;-72
2023/01/02 12:14:17;;;;;;;3.47;1.10;;;11.90;99.90;;;;;;4855365;29;20081;-71
2023/01/02 12:16:50;;;;;;;7.32;1.80;;;11.80;99.90;;;;;;4825201;29;20113;-71
2023/01/02 12:19:36;;;;;;;6.03;1.70;;;11.70;99.90;;;;;;4852545;29;20049;-71
2023/01/02 12:22:32;;;;;;;6.40;1.60;;;11.70;99.90;;;;;;4853542;29;20510;-70
2023/01/02 12:25:18;;;;;;;5.75;1.50;;;11.50;99.90;;;;;;4834657;29;20046;-70
2023/01/02 12:27:50;;;;;;;4.38;1.30;;;11.50;99.90;;;;;;4857173;29;20049;-70
2023/01/02 12:30:18;;;;;;;7.97;1.58;;;11.40;99.90;;;;;;4852993;29;20056;-70
2023/01/02 12:32:47;;;;;;;4.20;1.23;;;11.40;99.90;;;;;;4828341;29;20825;-71
2023/01/02 12:35:31;;;;;;;6.53;1.40;;;11.30;99.90;;;;;;4856732;29;20393;-70
2023/01/02 12:37:59;;;;;;;5.22;1.58;;;11.30;99.90;;;;;;4854105;29;20454;-77
2023/01/02 12:40:25;;;;;;;5.22;1.30;;;11.20;99.90;;;;;;4855465;29;20053;-77
2023/01/02 12:43:28;;;;;;;5.10;1.20;;;11.20;99.90;;;;;;4854936;29;20045;-77
2023/01/02 12:46:22;;;;;;;7.00;1.27;;;11.10;99.90;;;;;;4849449;29;20045;-77
2023/01/02 12:49:11;;;;;;;7.75;1.58;;;11.00;99.90;;;;;;4845818;29;20078;-77
2023/01/02 12:51:57;;;;;;;7.75;1.80;;;11.00;99.90;;;;;;4859359;29;20041;-78
2023/01/02 12:54:28;;;;;;;5.93;1.23;;;11.00;99.90;;;;;;4843601;29;20141;-78
2023/01/02 12:57:01;;;;;;;5.30;1.50;;;10.90;99.90;;;;;;4859258;29;20416;-78
2023/01/02 12:59:36;;;;;;;7.13;1.67;;;10.90;99.90;;;;;;4859405;29;20061;-77
2023/01/02 13:02:10;;;;;;;5.28;1.45;;;10.80;99.90;;;;;;4842948;29;20061;-78
2023/01/02 13:04:41;;;;;;;5.43;1.50;;;10.90;99.90;;;;;;4859137;29;20057;-77
2023/01/02 13:07:23;;;;;;;4.43;1.20;;;10.80;99.90;;;;;;4869554;29;20061;-76
2023/01/02 13:09:49;;;;;;;7.32;1.85;;;10.80;99.90;;;;;;4858317;29;20049;-77
2023/01/02 13:12:19;;;;;;;6.80;1.55;;;10.80;99.90;;;;;;4843167;29;20064;-78
2023/01/02 13:14:56;;;;;;;11.20;1.75;;;10.80;99.90;;;;;;4840564;29;20120;-77